Time;durP1;ratioP1;P1;durP2;ratioP2;P2;SDS_P1;SDS_P2;PMS_P1;PMS_P2;Temp;Humidity;BMP_temperature;BMP_pressure;BME280_temperature;BME280_humidity;BME280_pressure;Samples;Min_cycle;Max_cycle;Signal;HPM_P1;HPM_P2
2021/03/01 00:00:13;;;;;;;78.55;45.75;;;;;;;-0.57;74.36;97490.13;5051241;28;20041;-53
2021/03/01 00:02:42;;;;;;;75.22;42.60;;;;;;;-0.50;74.18;97487.75;5038465;28;20051;-55
2021/03/01 00:05:10;;;;;;;65.00;39.45;;;;;;;-0.49;73.82;97497.16;5050835;28;20068;-55
2021/03/01 00:07:39;;;;;;;64.55;35.03;;;;;;;-0.45;73.33;97493.34;5071441;28;20147;-54
2021/03/01 00:10:08;;;;;;;66.75;39.72;;;;;;;-0.38;74.13;97484.00;5064136;28;20063;-54
2021/03/01 00:12:36;;;;;;;62.40;38.03;;;;;;;-0.38;73.96;97473.63;5050688;28;20052;-54
2021/03/01 00:15:06;;;;;;;65.13;39.33;;;;;;;-0.41;73.64;97476.50;5054709;28;20061;-54
2021/03/01 00:17:33;;;;;;;66.03;41.10;;;;;;;-0.32;73.33;97480.00;5055683;28;20575;-54
2021/03/01 00:20:06;;;;;;;76.07;44.53;;;;;;;-0.28;73.71;97462.34;5069222;28;20405;-54
2021/03/01 00:22:33;;;;;;;64.22;41.85;;;;;;;-0.27;73.83;97463.97;5038975;28;20531;-54
2021/03/01 00:25:00;;;;;;;68.53;42.05;;;;;;;-0.24;73.34;97468.88;5028263;28;20064;-53
2021/03/01 00:27:28;;;;;;;74.00;42.20;;;;;;;-0.23;72.89;97466.13;5050612;28;20040;-54
2021/03/01 00:29:55;;;;;;;68.07;39.08;;;;;;;-0.14;73.56;97480.00;5052183;28;20049;-54
2021/03/01 00:32:22;;;;;;;67.55;38.90;;;;;;;-0.10;73.45;97464.94;5054284;28;20068;-55
2021/03/01 00:34:50;;;;;;;66.22;38.35;;;;;;;-0.07;73.43;97472.44;5053810;28;20041;-57
2021/03/01 00:37:17;;;;;;;56.53;34.58;;;;;;;0.00;72.65;97463.09;5055396;28;20159;-55
2021/03/01 00:39:44;;;;;;;58.28;34.33;;;;;;;0.01;72.69;97456.13;5050628;28;20056;-54
2021/03/01 00:42:12;;;;;;;70.03;37.33;;;;;;;0.04;72.86;97461.81;5035786;28;20036;-55
2021/03/01 00:44:40;;;;;;;53.17;34.08;;;;;;;0.08;72.42;97452.78;5054084;28;20052;-54
2021/03/01 00:47:07;;;;;;;60.53;34.67;;;;;;;0.09;73.47;97453.59;5056876;28;20068;-55
2021/03/01 00:49:35;;;;;;;57.03;32.03;;;;;;;0.08;73.08;97451.94;5048332;28;20059;-54
2021/03/01 00:52:03;;;;;;;51.25;30.25;;;;;;;0.03;73.07;97417.88;5035585;28;20503;-54
2021/03/01 00:54:30;;;;;;;52.72;29.83;;;;;;;0.18;72.65;97424.16;5050249;28;20083;-54
2021/03/01 00:56:58;;;;;;;49.35;29.98;;;;;;;0.17;72.45;97414.72;5059195;28;20037;-54
2021/03/01 00:59:26;;;;;;;38.35;26.25;;;;;;;0.19;72.84;97419.75;5029602;28;20041;-54
2021/03/01 01:02:09;;;;;;;43.17;29.27;;;;;;;0.14;73.44;97430.59;5047517;28;20400;-55
2021/03/01 01:04:46;;;;;;;43.72;25.95;;;;;;;0.19;73.33;97437.94;5038603;28;20385;-55
2021/03/01 01:07:13;;;;;;;42.75;24.55;;;;;;;0.18;73.59;97444.91;5055887;28;20052;-55
2021/03/01 01:09:41;;;;;;;43.25;25.90;;;;;;;0.21;73.53;97439.41;5068024;28;20052;-54
2021/03/01 01:12:08;;;;;;;41.85;26.00;;;;;;;0.24;72.99;97438.31;5057889;28;20044;-55
2021/03/01 01:14:36;;;;;;;41.60;24.65;;;;;;;0.25;73.49;97438.13;5052751;28;20040;-54
2021/03/01 01:17:06;;;;;;;42.22;24.08;;;;;;;0.33;73.13;97429.59;5019032;28;20451;-54
2021/03/01 01:19:34;;;;;;;34.50;23.00;;;;;;;0.41;73.06;97439.22;5048104;28;20055;-54
2021/03/01 01:22:01;;;;;;;44.58;23.60;;;;;;;0.36;72.64;97428.47;5050769;28;20065;-55
2021/03/01 01:24:28;;;;;;;37.58;24.13;;;;;;;0.34;72.35;97423.44;5026712;28;20475;-54
2021/03/01 01:26:55;;;;;;;37.45;24.63;;;;;;;0.34;72.78;97417.41;5057117;28;20507;-54
2021/03/01 01:29:23;;;;;;;38.40;25.83;;;;;;;0.28;72.78;97421.44;5049165;28;20045;-54
2021/03/01 01:31:50;;;;;;;42.90;26.30;;;;;;;0.25;72.53;97426.91;5053487;28;20052;-54
2021/03/01 01:34:17;;;;;;;40.22;24.88;;;;;;;0.24;72.57;97430.50;5054470;28;20438;-54
2021/03/01 01:36:44;;;;;;;45.95;25.17;;;;;;;0.23;72.88;97429.69;5054147;28;20052;-57
2021/03/01 01:39:12;;;;;;;35.75;24.05;;;;;;;0.15;72.92;97416.66;5050828;28;20052;-54
2021/03/01 01:41:39;;;;;;;45.88;27.30;;;;;;;0.20;73.33;97442.97;5045616;28;20052;-54
2021/03/01 01:44:07;;;;;;;43.15;26.15;;;;;;;0.22;73.54;97450.59;5054754;28;20070;-53
2021/03/01 01:46:34;;;;;;;44.53;27.15;;;;;;;0.20;73.38;97442.97;5032356;28;20049;-54
2021/03/01 01:49:02;;;;;;;36.83;22.23;;;;;;;0.21;73.74;97436.00;5054344;28;20049;-54
2021/03/01 01:51:29;;;;;;;45.83;25.10;;;;;;;0.22;73.86;97445.41;5084236;28;20057;-57
2021/03/01 01:53:56;;;;;;;42.78;25.38;;;;;;;0.26;74.22;97442.38;5056159;28;20344;-54
2021/03/01 01:56:24;;;;;;;38.55;23.35;;;;;;;0.34;73.67;97441.59;5054986;28;20064;-54
2021/03/01 01:58:51;;;;;;;39.03;25.50;;;;;;;0.37;73.52;97433.50;5045195;28;20481;-54
2021/03/01 02:01:18;;;;;;;40.47;24.55;;;;;;;0.31;74.30;97428.94;5054557;28;20457;-54
2021/03/01 02:04:05;;;;;;;40.55;23.08;;;;;;;0.31;74.17;97423.72;5040868;28;20685;-55
2021/03/01 02:06:46;;;;;;;40.63;25.35;;;;;;;0.36;74.30;97418.91;5052437;28;20057;-54
2021/03/01 02:09:51;;;;;;;46.47;25.52;;;;;;;0.35;73.81;97421.63;5039765;28;20099;-54
2021/03/01 02:12:27;;;;;;;39.95;25.17;;;;;;;0.38;74.37;97424.75;5047876;28;20435;-54
2021/03/01 02:15:03;;;;;;;37.65;25.15;;;;;;;0.44;74.49;97425.91;5033076;28;20054;-54
2021/03/01 02:17:31;;;;;;;39.60;23.35;;;;;;;0.27;73.90;97402.47;5064421;28;20511;-63
2021/03/01 02:19:59;;;;;;;37.00;23.85;;;;;;;0.47;73.89;97430.78;5018683;28;20048;-54
2021/03/01 02:22:26;;;;;;;41.28;24.00;;;;;;;0.45;74.34;97435.31;5036925;28;20045;-54
2021/03/01 02:24:59;;;;;;;40.33;26.20;;;;;;;0.42;74.19;97430.47;5049884;28;20052;-55
2021/03/01 02:27:32;;;;;;;42.30;24.35;;;;;;;0.45;74.46;97427.53;5050584;28;20053;-54
2021/03/01 02:30:44;;;;;;;38.28;24.17;;;;;;;0.50;74.55;97430.50;5053300;28;20052;-53
2021/03/01 02:33:21;;;;;;;40.58;23.63;;;;;;;0.50;74.11;97425.31;5035796;28;20049;-54
2021/03/01 02:36:21;;;;;;;37.50;24.55;;;;;;;0.56;74.02;97429.06;5069019;28;20060;-54
2021/03/01 02:38:51;;;;;;;40.35;24.98;;;;;;;0.53;74.57;97435.38;5052877;28;20051;-54
2021/03/01 02:41:20;;;;;;;36.67;25.55;;;;;;;0.56;74.37;97432.47;5083601;28;20404;-54
2021/03/01 02:43:49;;;;;;;38.20;24.38;;;;;;;0.58;74.97;97429.72;5054903;28;20044;-55
2021/03/01 02:46:16;;;;;;;37.75;23.50;;;;;;;0.56;74.98;97444.66;5055239;28;20053;-55
2021/03/01 02:48:44;;;;;;;32.42;22.48;;;;;;;0.61;74.71;97438.03;5056045;28;20049;-55
2021/03/01 02:51:12;;;;;;;40.80;25.08;;;;;;;0.63;73.75;97442.25;5059244;28;20428;-55
2021/03/01 02:53:42;;;;;;;36.55;22.65;;;;;;;0.59;74.60;97434.75;5052076;28;20045;-55
2021/03/01 02:56:10;;;;;;;36.60;25.30;;;;;;;0.61;74.36;97434.63;5049805;28;20053;-55
2021/03/01 02:58:40;;;;;;;36.22;22.83;;;;;;;0.65;73.93;97433.31;5055483;28;20746;-55
2021/03/01 03:01:09;;;;;;;37.05;22.17;;;;;;;0.65;74.10;97438.53;5053012;28;20048;-54
2021/03/01 03:03:40;;;;;;;41.35;24.17;;;;;;;0.73;74.18;97435.97;5050933;28;20056;-58
2021/03/01 03:06:13;;;;;;;36.50;23.73;;;;;;;0.76;74.33;97425.25;5056121;28;20504;-56
2021/03/01 03:08:42;;;;;;;43.03;24.40;;;;;;;0.80;74.25;97414.56;5058550;28;20052;-54
2021/03/01 03:11:11;;;;;;;42.35;24.02;;;;;;;0.80;74.06;97411.97;5051856;28;20048;-54
2021/03/01 03:13:40;;;;;;;40.10;23.40;;;;;;;0.75;74.17;97396.84;5049110;28;20063;-54
2021/03/01 03:16:09;;;;;;;39.97;25.85;;;;;;;0.72;74.53;97403.19;5056491;28;20053;-54
2021/03/01 03:18:39;;;;;;;45.13;25.85;;;;;;;0.68;74.20;97407.06;5053493;28;20055;-55
2021/03/01 03:21:06;;;;;;;41.88;24.92;;;;;;;0.68;74.66;97419.22;5053924;28;20053;-55
2021/03/01 03:23:34;;;;;;;35.55;24.00;;;;;;;0.76;73.88;97419.25;5044914;28;20048;-55
2021/03/01 03:26:01;;;;;;;40.80;23.83;;;;;;;0.76;74.01;97416.66;5056359;28;20057;-54
2021/03/01 03:28:28;;;;;;;47.35;27.67;;;;;;;0.86;74.13;97413.97;5061986;28;20055;-54
2021/03/01 03:30:56;;;;;;;47.95;28.45;;;;;;;0.85;73.58;97423.50;5034251;28;20053;-54
2021/03/01 03:33:23;;;;;;;42.40;27.77;;;;;;;0.85;73.87;97423.50;5050565;28;20064;-55
2021/03/01 03:35:50;;;;;;;45.47;26.40;;;;;;;0.83;73.89;97437.63;5053616;28;20052;-54
2021/03/01 03:38:24;;;;;;;44.28;26.67;;;;;;;0.84;74.23;97436.69;5059062;28;20488;-54
2021/03/01 03:40:57;;;;;;;45.20;28.13;;;;;;;0.72;74.09;97428.31;5057424;28;20060;-54
2021/03/01 03:43:26;;;;;;;40.05;25.65;;;;;;;0.68;74.52;97419.22;5050166;28;20056;-54
2021/03/01 03:45:55;;;;;;;38.05;26.65;;;;;;;0.67;74.14;97415.00;5055685;28;20041;-54
2021/03/01 03:48:26;;;;;;;41.00;23.83;;;;;;;0.69;74.30;97413.88;5037466;28;20063;-54
2021/03/01 03:50:58;;;;;;;42.25;26.45;;;;;;;0.66;74.54;97411.59;5057880;28;20126;-54
2021/03/01 03:53:27;;;;;;;39.85;26.08;;;;;;;0.76;74.83;97432.25;5040479;28;20052;-54
2021/03/01 03:55:58;;;;;;;39.40;25.80;;;;;;;0.83;74.56;97435.84;5055963;28;20041;-54
2021/03/01 03:58:30;;;;;;;42.55;28.15;;;;;;;0.87;74.21;97425.94;5057667;28;20415;-54
2021/03/01 04:01:00;;;;;;;45.42;30.25;;;;;;;0.89;74.03;97432.63;5056542;28;20067;-54
2021/03/01 04:03:30;;;;;;;40.35;27.50;;;;;;;0.86;73.71;97426.94;5053937;28;20053;-54
2021/03/01 04:06:00;;;;;;;38.45;27.80;;;;;;;0.89;74.32;97427.44;5058778;28;20044;-54
2021/03/01 04:08:29;;;;;;;43.60;28.45;;;;;;;0.91;74.07;97448.06;5057240;28;20622;-54
2021/03/01 04:10:59;;;;;;;45.13;28.52;;;;;;;0.90;73.79;97444.66;5042307;28;20416;-56
2021/03/01 04:13:28;;;;;;;40.28;26.63;;;;;;;0.95;73.58;97451.16;5053559;28;20153;-54
2021/03/01 04:15:55;;;;;;;45.55;29.23;;;;;;;0.88;74.28;97449.19;5023385;28;20040;-54
2021/03/01 04:18:25;;;;;;;44.40;26.85;;;;;;;0.88;74.57;97449.19;5053384;28;20044;-54
2021/03/01 04:20:55;;;;;;;39.47;24.55;;;;;;;0.99;73.63;97436.88;5061304;28;20048;-54
2021/03/01 04:23:24;;;;;;;40.05;24.92;;;;;;;1.01;74.02;97440.16;5050511;28;20075;-55
2021/03/01 04:25:52;;;;;;;44.20;27.23;;;;;;;1.00;74.25;97435.91;5054018;28;20048;-54
2021/03/01 04:28:20;;;;;;;45.45;28.35;;;;;;;1.00;73.89;97430.72;5055608;28;20960;-54
2021/03/01 04:30:52;;;;;;;39.92;25.52;;;;;;;0.96;74.07;97419.00;5041048;28;20440;-54
2021/03/01 04:33:21;;;;;;;34.45;24.42;;;;;;;0.89;74.63;97413.63;5055814;28;20065;-55
2021/03/01 04:35:50;;;;;;;37.05;23.73;;;;;;;0.81;75.54;97418.78;5042071;28;20589;-72
2021/03/01 04:38:17;;;;;;;38.83;25.20;;;;;;;0.75;75.49;97434.03;5060553;28;20056;-57
2021/03/01 04:40:44;;;;;;;43.42;25.30;;;;;;;0.72;76.29;97431.75;5051390;28;20075;-54
2021/03/01 04:43:14;;;;;;;43.90;28.60;;;;;;;0.71;77.40;97437.09;5074207;28;20055;-54
2021/03/01 04:45:43;;;;;;;42.83;25.55;;;;;;;0.70;77.15;97431.09;5033159;28;20052;-54
2021/03/01 04:48:12;;;;;;;39.45;26.50;;;;;;;0.72;76.46;97436.13;5057520;28;20052;-53
2021/03/01 04:50:40;;;;;;;49.53;29.00;;;;;;;0.80;77.79;97430.16;5069309;28;20249;-54
2021/03/01 04:53:08;;;;;;;49.45;29.40;;;;;;;0.87;78.13;97431.97;5020144;28;20047;-55
2021/03/01 04:55:38;;;;;;;50.53;32.78;;;;;;;0.88;78.34;97423.22;5050351;28;20044;-56
2021/03/01 04:58:07;;;;;;;50.33;29.65;;;;;;;0.97;78.11;97423.22;5055117;28;20523;-54
2021/03/01 05:00:36;;;;;;;53.00;32.70;;;;;;;1.00;77.71;97431.53;5026619;28;20053;-54
2021/03/01 05:03:06;;;;;;;59.20;34.00;;;;;;;1.00;79.28;97422.94;5051100;28;20048;-54
2021/03/01 05:05:35;;;;;;;58.47;34.97;;;;;;;1.03;79.42;97433.00;5049989;28;20048;-55
2021/03/01 05:08:11;;;;;;;60.55;36.95;;;;;;;1.06;79.15;97435.28;5055168;28;20055;-54
2021/03/01 05:10:39;;;;;;;64.30;37.13;;;;;;;1.10;79.00;97447.00;5069073;28;20412;-54
2021/03/01 05:13:07;;;;;;;65.93;38.50;;;;;;;1.15;79.05;97446.53;5056856;28;20059;-55
2021/03/01 05:15:35;;;;;;;67.05;39.35;;;;;;;1.20;78.95;97452.88;5083129;28;20045;-54
2021/03/01 05:18:03;;;;;;;64.85;37.70;;;;;;;1.20;79.04;97445.06;5053131;28;20040;-54
2021/03/01 05:20:30;;;;;;;64.82;40.28;;;;;;;1.25;78.58;97443.78;5055691;28;20056;-54
2021/03/01 05:22:57;;;;;;;70.38;41.35;;;;;;;1.23;79.01;97443.97;5031612;28;20258;-54
2021/03/01 05:25:24;;;;;;;75.00;44.65;;;;;;;1.31;79.85;97438.78;5068558;28;20080;-53
2021/03/01 05:27:52;;;;;;;78.72;42.38;;;;;;;1.34;80.18;97446.25;5083157;28;20040;-56
2021/03/01 05:30:21;;;;;;;64.88;38.42;;;;;;;1.44;79.71;97461.72;5051202;28;20048;-57
2021/03/01 05:32:48;;;;;;;78.70;42.38;;;;;;;1.47;79.18;97453.59;5050243;28;20060;-55
2021/03/01 05:35:16;;;;;;;75.68;43.33;;;;;;;1.48;79.26;97460.44;5038812;28;20045;-54
2021/03/01 05:37:43;;;;;;;82.22;44.30;;;;;;;1.51;79.49;97475.72;5055651;28;21071;-60
2021/03/01 05:40:12;;;;;;;75.57;43.10;;;;;;;1.54;79.29;97475.38;5052338;28;20045;-55
2021/03/01 05:42:41;;;;;;;68.60;42.78;;;;;;;1.58;79.39;97469.88;5050193;28;20068;-55
2021/03/01 05:45:10;;;;;;;77.30;43.97;;;;;;;1.62;79.34;97471.19;5054507;28;20052;-54
2021/03/01 05:47:39;;;;;;;75.70;43.80;;;;;;;1.70;79.39;97479.00;5047698;28;20722;-57
2021/03/01 05:50:09;;;;;;;83.18;44.35;;;;;;;1.67;79.53;97489.72;5050206;28;20049;-55
2021/03/01 05:52:41;;;;;;;86.20;43.83;;;;;;;1.74;79.33;97482.91;5047750;28;20049;-55
2021/03/01 05:55:09;;;;;;;69.88;43.10;;;;;;;1.77;79.16;97490.41;5056405;28;20044;-54
2021/03/01 05:57:39;;;;;;;69.45;40.90;;;;;;;1.74;79.22;97485.50;5056091;28;20071;-59
2021/03/01 06:00:07;;;;;;;69.50;41.13;;;;;;;1.77;79.02;97506.00;5052052;28;20052;-54
2021/03/01 06:02:35;;;;;;;76.13;43.03;;;;;;;1.87;79.41;97513.66;5050267;28;20080;-57
2021/03/01 06:05:03;;;;;;;72.47;39.97;;;;;;;1.92;79.16;97500.97;5067058;28;20855;-55
2021/03/01 06:07:30;;;;;;;73.15;39.97;;;;;;;1.82;79.49;97495.13;5051778;28;20067;-55
2021/03/01 06:09:58;;;;;;;71.97;42.28;;;;;;;1.78;78.73;97496.41;5058877;28;20087;-55
2021/03/01 06:12:25;;;;;;;84.95;44.90;;;;;;;1.74;79.17;97495.91;5047971;28;20056;-55
2021/03/01 06:14:55;;;;;;;68.93;39.38;;;;;;;1.71;79.42;97496.22;5053428;28;20428;-55
2021/03/01 06:17:23;;;;;;;74.10;40.45;;;;;;;1.74;79.35;97510.69;5050721;28;20057;-55
2021/03/01 06:20:01;;;;;;;67.07;39.22;;;;;;;1.73;79.86;97511.66;5050610;28;20056;-55
2021/03/01 06:22:31;;;;;;;74.35;42.85;;;;;;;1.78;79.25;97520.66;5038274;28;20060;-55
2021/03/01 06:25:04;;;;;;;74.93;41.65;;;;;;;1.67;79.27;97507.91;5032822;28;20064;-55
2021/03/01 06:27:46;;;;;;;70.57;41.63;;;;;;;1.83;79.24;97520.97;5083509;28;20052;-55
2021/03/01 06:30:15;;;;;;;61.90;34.45;;;;;;;1.79;79.53;97527.47;5054671;28;20040;-55
2021/03/01 06:32:43;;;;;;;61.05;35.63;;;;;;;1.83;79.38;97525.38;5045847;28;20057;-54
2021/03/01 06:35:31;;;;;;;65.63;37.30;;;;;;;1.96;78.92;97530.09;5080489;28;20045;-54
2021/03/01 06:38:14;;;;;;;58.03;32.28;;;;;;;2.07;78.77;97532.38;5045632;28;20049;-54
2021/03/01 06:40:42;;;;;;;63.72;33.72;;;;;;;2.15;78.55;97534.19;5020771;28;20049;-54
2021/03/01 06:43:14;;;;;;;55.92;32.92;;;;;;;2.22;78.10;97527.34;5051706;28;20040;-53
2021/03/01 06:45:42;;;;;;;54.10;31.45;;;;;;;2.28;78.28;97529.31;5051698;28;20416;-54
2021/03/01 06:48:10;;;;;;;61.38;34.70;;;;;;;2.29;78.06;97536.16;5049671;28;20049;-54
2021/03/01 06:50:47;;;;;;;54.70;30.63;;;;;;;2.32;77.75;97529.00;5032343;28;20586;-57
2021/03/01 06:53:15;;;;;;;50.45;30.17;;;;;;;2.37;77.54;97531.91;5050277;28;20057;-54
2021/03/01 06:56:05;;;;;;;51.75;30.05;;;;;;;2.41;77.24;97535.81;5042500;28;20044;-54
2021/03/01 06:58:45;;;;;;;52.83;30.48;;;;;;;2.41;77.04;97543.63;5050583;28;20071;-54
2021/03/01 07:01:24;;;;;;;55.50;29.45;;;;;;;2.43;76.97;97542.50;5047978;28;20445;-54
2021/03/01 07:03:51;;;;;;;48.13;27.38;;;;;;;2.45;76.92;97539.75;5025898;28;20056;-54
2021/03/01 07:06:19;;;;;;;40.05;25.13;;;;;;;2.55;76.62;97558.63;5050238;28;20420;-55
2021/03/01 07:08:52;;;;;;;44.85;26.60;;;;;;;2.64;76.05;97569.03;5036555;28;20064;-54
2021/03/01 07:11:30;;;;;;;43.92;27.75;;;;;;;2.74;76.11;97569.66;5054070;28;20585;-54
2021/03/01 07:14:04;;;;;;;41.75;26.70;;;;;;;2.83;75.84;97567.88;5050558;28;20060;-54
2021/03/01 07:16:46;;;;;;;46.20;25.75;;;;;;;2.90;75.73;97568.81;5051389;28;20159;-54
2021/03/01 07:19:17;;;;;;;41.50;24.40;;;;;;;3.00;75.04;97572.09;5052980;28;20048;-54
2021/03/01 07:21:56;;;;;;;41.72;26.02;;;;;;;3.15;74.81;97576.59;5041981;28;20056;-55
2021/03/01 07:24:26;;;;;;;41.45;24.50;;;;;;;3.23;74.17;97580.00;5054199;28;20790;-55
2021/03/01 07:26:57;;;;;;;48.22;28.75;;;;;;;3.33;74.52;97576.38;5083010;28;20052;-56
2021/03/01 07:29:30;;;;;;;41.97;27.52;;;;;;;3.35;73.96;97580.47;5056641;28;20049;-55
2021/03/01 07:32:02;;;;;;;47.42;30.05;;;;;;;3.37;74.42;97575.06;5062521;28;20539;-55
2021/03/01 07:34:30;;;;;;;49.05;29.83;;;;;;;3.43;73.78;97589.22;5062092;28;20868;-54
2021/03/01 07:36:59;;;;;;;39.28;25.23;;;;;;;3.43;73.12;97581.41;5058797;28;20044;-54
2021/03/01 07:39:28;;;;;;;40.78;24.10;;;;;;;3.49;73.50;97585.97;5044495;28;20730;-54
2021/03/01 07:41:56;;;;;;;38.03;23.65;;;;;;;3.55;73.12;97587.88;5029764;28;20734;-56
2021/03/01 07:44:29;;;;;;;38.38;24.33;;;;;;;3.54;73.00;97587.09;5053245;28;20048;-54
2021/03/01 07:46:59;;;;;;;42.53;25.92;;;;;;;3.60;73.04;97595.19;5053049;28;20055;-55
2021/03/01 07:49:43;;;;;;;36.85;25.27;;;;;;;3.69;72.84;97594.22;5054811;28;20303;-56
2021/03/01 07:52:19;;;;;;;34.78;22.25;;;;;;;3.77;72.24;97590.72;5041710;28;20057;-60
2021/03/01 07:55:10;;;;;;;36.75;22.75;;;;;;;3.81;71.92;97590.25;5053611;28;20492;-57
2021/03/01 07:57:39;;;;;;;31.92;20.00;;;;;;;3.92;71.47;97596.06;5045272;28;20574;-56
2021/03/01 08:00:30;;;;;;;32.15;19.77;;;;;;;4.09;70.87;97604.59;5058120;28;20057;-59
2021/03/01 08:02:58;;;;;;;30.20;19.60;;;;;;;4.20;70.35;97591.16;5059971;28;20111;-56
2021/03/01 08:05:31;;;;;;;30.52;18.67;;;;;;;4.37;69.88;97588.44;5061306;28;20258;-56
2021/03/01 08:07:59;;;;;;;31.27;20.40;;;;;;;4.42;69.58;97597.38;5060125;28;20502;-54
2021/03/01 08:10:32;;;;;;;24.23;17.15;;;;;;;4.55;68.63;97596.78;5058019;28;20071;-57
2021/03/01 08:13:04;;;;;;;25.85;17.30;;;;;;;4.67;68.58;97586.72;5062978;28;20550;-54
2021/03/01 08:15:44;;;;;;;24.08;16.00;;;;;;;4.91;67.72;97592.72;5059223;28;20431;-54
2021/03/01 08:18:13;;;;;;;26.55;17.10;;;;;;;5.13;67.37;97605.94;5060011;28;20385;-61
2021/03/01 08:20:54;;;;;;;24.42;17.88;;;;;;;5.26;66.74;97605.28;5025476;28;20056;-55
2021/03/01 08:23:29;;;;;;;25.13;16.17;;;;;;;5.44;66.52;97608.38;5045539;28;20052;-55
2021/03/01 08:25:58;;;;;;;24.65;16.77;;;;;;;5.54;65.01;97615.94;5059399;28;20047;-55
2021/03/01 08:28:26;;;;;;;26.17;16.73;;;;;;;5.58;64.74;97616.41;5049223;28;20048;-55
2021/03/01 08:30:55;;;;;;;24.63;16.73;;;;;;;5.53;64.10;97615.16;5052665;28;20047;-57
2021/03/01 08:33:26;;;;;;;24.00;16.67;;;;;;;5.55;63.93;97630.66;5054509;28;20485;-66
2021/03/01 08:36:14;;;;;;;25.23;16.85;;;;;;;5.64;63.46;97634.84;5076838;28;20697;-59
2021/03/01 08:38:46;;;;;;;27.55;17.88;;;;;;;5.62;63.90;97643.84;5042081;28;20064;-55
2021/03/01 08:41:16;;;;;;;23.58;14.93;;;;;;;5.53;63.77;97638.69;5030686;28;20064;-55
2021/03/01 08:43:48;;;;;;;22.67;16.30;;;;;;;5.48;63.80;97646.28;5082736;28;20056;-55
2021/03/01 08:46:15;;;;;;;28.00;15.73;;;;;;;5.42;64.42;97646.19;5051010;28;20056;-55
2021/03/01 08:48:45;;;;;;;21.02;14.55;;;;;;;5.38;64.52;97646.56;5046844;28;20059;-55
2021/03/01 08:51:14;;;;;;;20.58;14.32;;;;;;;5.39;64.20;97642.94;5030036;28;20563;-56
2021/03/01 08:53:42;;;;;;;21.20;14.95;;;;;;;5.32;63.62;97638.59;5050540;28;20912;-54
2021/03/01 08:56:24;;;;;;;18.83;14.00;;;;;;;5.28;64.04;97632.09;5051131;28;20059;-56
2021/03/01 08:58:53;;;;;;;17.90;11.73;;;;;;;5.41;64.21;97650.59;5047858;28;20045;-57
2021/03/01 09:01:21;;;;;;;20.45;13.25;;;;;;;5.52;63.90;97657.22;5037349;28;20045;-57
2021/03/01 09:03:49;;;;;;;19.98;13.98;;;;;;;5.61;63.55;97650.06;5051583;28;20055;-56
2021/03/01 09:06:18;;;;;;;19.02;11.57;;;;;;;5.76;62.15;97650.88;5056276;28;20056;-56
2021/03/01 09:08:47;;;;;;;18.75;12.57;;;;;;;5.87;62.59;97649.63;5045884;28;20060;-55
2021/03/01 09:11:19;;;;;;;17.30;10.90;;;;;;;5.95;60.85;97651.34;5050908;28;20048;-56
2021/03/01 09:13:52;;;;;;;17.25;10.63;;;;;;;5.92;60.53;97651.69;5050708;28;20048;-57
2021/03/01 09:16:23;;;;;;;16.63;11.70;;;;;;;5.90;60.97;97658.91;5073894;28;20048;-57
2021/03/01 09:19:00;;;;;;;16.40;11.00;;;;;;;5.97;61.51;97649.31;5048644;28;20258;-57
2021/03/01 09:21:27;;;;;;;13.32;9.95;;;;;;;6.14;61.66;97660.47;5052526;28;20045;-57
2021/03/01 09:23:56;;;;;;;17.58;10.40;;;;;;;6.22;60.87;97660.34;5049994;28;20573;-56
2021/03/01 09:26:32;;;;;;;12.48;8.75;;;;;;;6.30;59.30;97664.66;5052790;28;20386;-56
2021/03/01 09:29:13;;;;;;;13.27;8.95;;;;;;;6.27;58.91;97660.63;5040337;28;20049;-57
2021/03/01 09:31:51;;;;;;;13.93;8.55;;;;;;;6.20;58.56;97657.09;5044779;28;20395;-56
2021/03/01 09:34:24;;;;;;;11.80;8.57;;;;;;;6.28;59.55;97671.91;5045646;28;20055;-57
2021/03/01 09:37:11;;;;;;;12.07;8.85;;;;;;;6.47;58.30;97670.47;5052659;28;20560;-57
2021/03/01 09:39:43;;;;;;;16.30;9.30;;;;;;;6.61;58.36;97677.50;5049681;28;20286;-58
2021/03/01 09:42:10;;;;;;;14.85;9.50;;;;;;;6.73;57.65;97677.00;5050267;28;20041;-55
2021/03/01 09:44:39;;;;;;;12.25;8.23;;;;;;;6.71;57.67;97671.91;5028174;28;20706;-56
2021/03/01 09:47:08;;;;;;;12.18;8.95;;;;;;;6.75;56.75;97656.66;5050654;28;20072;-57
2021/03/01 09:49:40;;;;;;;17.23;8.73;;;;;;;7.00;55.66;97672.78;5051525;28;20052;-58
2021/03/01 09:52:08;;;;;;;13.27;8.82;;;;;;;7.11;54.51;97678.53;5079070;28;20056;-56
2021/03/01 09:54:39;;;;;;;15.60;9.32;;;;;;;7.18;55.34;97668.91;5047670;28;20230;-57
2021/03/01 09:57:09;;;;;;;10.82;7.95;;;;;;;7.27;55.28;97675.63;5048392;28;20049;-56
2021/03/01 09:59:38;;;;;;;13.68;10.18;;;;;;;7.42;55.17;97675.53;5050834;28;20155;-56
2021/03/01 10:02:15;;;;;;;12.18;9.18;;;;;;;7.56;53.35;97678.25;5048216;28;20041;-56
2021/03/01 10:04:43;;;;;;;14.63;9.80;;;;;;;7.59;53.69;97670.78;5052416;28;20061;-56
2021/03/01 10:07:24;;;;;;;14.75;10.10;;;;;;;7.72;53.74;97675.31;5031731;28;20056;-60
2021/03/01 10:09:52;;;;;;;17.60;10.23;;;;;;;7.74;54.19;97677.75;5053885;28;20048;-57
2021/03/01 10:12:20;;;;;;;16.98;11.13;;;;;;;7.73;54.03;97669.06;5052794;28;20419;-57
2021/03/01 10:14:55;;;;;;;15.10;11.10;;;;;;;7.73;54.66;97673.50;5059314;28;20076;-57
2021/03/01 10:17:28;;;;;;;13.25;9.57;;;;;;;7.74;53.80;97678.56;5051322;28;20060;-59
2021/03/01 10:20:14;;;;;;;15.75;11.13;;;;;;;7.65;54.75;97672.66;5051286;28;20053;-56
2021/03/01 10:23:05;;;;;;;15.93;11.35;;;;;;;7.68;54.48;97671.44;5055552;28;20049;-58
2021/03/01 10:26:01;;;;;;;14.95;8.32;;;;;;;7.70;53.34;97675.50;5055537;28;20079;-56
2021/03/01 10:28:33;;;;;;;11.02;8.55;;;;;;;7.75;53.01;97669.69;5058316;28;20067;-56
2021/03/01 10:31:12;;;;;;;13.45;9.82;;;;;;;7.82;53.44;97669.69;5031265;28;20071;-58
2021/03/01 10:33:52;;;;;;;15.63;10.73;;;;;;;7.95;53.75;97664.50;5037576;28;20060;-58
2021/03/01 10:36:33;;;;;;;19.63;11.32;;;;;;;7.91;53.14;97671.19;5039387;28;20052;-57
2021/03/01 10:39:17;;;;;;;17.63;10.43;;;;;;;7.86;53.07;97668.31;5048032;28;20041;-57
2021/03/01 10:42:03;;;;;;;15.02;10.80;;;;;;;7.92;54.43;97666.72;5050947;28;20496;-57
2021/03/01 10:44:33;;;;;;;12.68;10.00;;;;;;;8.04;53.47;97664.38;5049769;28;20059;-57
2021/03/01 10:47:26;;;;;;;16.50;10.75;;;;;;;8.20;53.87;97671.91;5054753;28;20037;-58
2021/03/01 10:49:56;;;;;;;17.85;10.25;;;;;;;8.30;52.51;97666.28;5051511;28;20412;-57
2021/03/01 10:52:24;;;;;;;16.40;11.57;;;;;;;8.39;52.59;97677.44;5024552;28;20052;-57
2021/03/01 10:54:55;;;;;;;15.75;10.98;;;;;;;8.37;52.50;97668.94;5085874;28;20048;-57
2021/03/01 10:57:23;;;;;;;13.48;10.65;;;;;;;8.40;53.61;97682.47;5065934;28;20047;-54
2021/03/01 10:59:53;;;;;;;17.17;12.27;;;;;;;8.29;52.21;97670.72;5062808;28;20048;-57
2021/03/01 11:02:21;;;;;;;12.40;9.98;;;;;;;8.30;52.54;97676.78;5044056;28;20037;-57
2021/03/01 11:04:53;;;;;;;17.25;10.35;;;;;;;8.41;53.41;97670.16;5031428;28;20460;-56
2021/03/01 11:07:20;;;;;;;17.30;12.80;;;;;;;8.44;52.92;97669.75;5044538;28;20432;-56
2021/03/01 11:09:47;;;;;;;15.43;11.45;;;;;;;8.41;52.95;97673.59;5090248;28;20459;-55
2021/03/01 11:12:15;;;;;;;17.92;12.20;;;;;;;8.34;52.98;97664.06;5059108;28;20060;-59
2021/03/01 11:14:42;;;;;;;16.17;11.45;;;;;;;8.29;53.04;97667.28;5042786;28;20513;-57
2021/03/01 11:17:11;;;;;;;14.88;12.23;;;;;;;8.29;53.14;97668.09;5059991;28;20693;-58
2021/03/01 11:19:39;;;;;;;16.42;11.95;;;;;;;8.22;53.26;97659.38;5052588;28;20048;-58
2021/03/01 11:22:07;;;;;;;16.20;11.40;;;;;;;8.20;53.55;97645.59;5023401;28;20075;-61
2021/03/01 11:24:34;;;;;;;17.42;11.68;;;;;;;8.24;53.19;97651.31;5040947;28;20048;-58
2021/03/01 11:27:01;;;;;;;14.23;11.50;;;;;;;8.12;52.82;97645.78;5088543;28;20067;-56
2021/03/01 11:29:29;;;;;;;15.18;10.93;;;;;;;8.06;52.54;97654.47;5047140;28;20047;-57
2021/03/01 11:31:56;;;;;;;14.32;11.18;;;;;;;7.94;53.25;97649.75;5012903;28;20055;-57
2021/03/01 11:34:24;;;;;;;14.93;11.85;;;;;;;7.92;54.17;97648.34;5038563;28;20075;-58
2021/03/01 11:36:51;;;;;;;16.10;10.98;;;;;;;7.95;53.98;97638.22;5056700;28;20047;-59
2021/03/01 11:39:18;;;;;;;20.73;13.43;;;;;;;7.92;53.87;97641.28;5066984;28;20049;-56
2021/03/01 11:41:46;;;;;;;16.20;11.82;;;;;;;7.81;54.34;97639.22;5055064;28;20063;-60